HI1060 TJSJ-MDJB
Flight info
| Callsign | HI1060 |
|---|---|
| Flight time | 0h 48m |
| Altitude | 40000 |
| Route | SJU RTE2 BQN B520 ANTEX UL577 OLITA |
| Aircraft | C25B/M-SDE2E3FGHRWXY/LB1 |
Departure
| Time | 2026-04-26 03:13 |
|---|---|
| Airport | Luis Munoz Marin International Airport (TJSJ) |
Arrival
| Time | 2026-04-26 04:01 |
|---|---|
| Airport | La Isabela International Airport (MDJB) |
| Time | Latitude | Longitude | Altitude | Speed | Heading |
|---|---|---|---|---|---|
| 2026-04-26 03:04 | 18.44159 | -65.99899 | -30 ft | 0 kts | 336° |
| 2026-04-26 03:08 | 18.44177 | -65.99907 | -34 ft | 12 kts | 351° |
| 2026-04-26 03:08 | 18.44213 | -65.99897 | -30 ft | 7 kts | 301° |
| 2026-04-26 03:08 | 18.44256 | -65.99938 | -36 ft | 0 kts | 320° |
| 2026-04-26 03:09 | 18.44290 | -65.99921 | -33 ft | 15 kts | 356° |
| 2026-04-26 03:09 | 18.44363 | -65.99982 | -40 ft | 11 kts | 249° |
| 2026-04-26 03:09 | 18.44328 | -66.00081 | -40 ft | 19 kts | 250° |
| 2026-04-26 03:09 | 18.44266 | -66.00229 | -53 ft | 25 kts | 246° |
| 2026-04-26 03:10 | 18.44192 | -66.00410 | -44 ft | 28 kts | 246° |
| 2026-04-26 03:10 | 18.44116 | -66.00589 | -33 ft | 26 kts | 247° |
| 2026-04-26 03:10 | 18.44054 | -66.00763 | -33 ft | 25 kts | 248° |
| 2026-04-26 03:10 | 18.43994 | -66.00909 | -33 ft | 22 kts | 246° |
| 2026-04-26 03:11 | 18.43929 | -66.01063 | -47 ft | 25 kts | 243° |
| 2026-04-26 03:11 | 18.43852 | -66.01225 | -47 ft | 24 kts | 235° |
| 2026-04-26 03:11 | 18.43811 | -66.01331 | -44 ft | 3 kts | 263° |
| 2026-04-26 03:11 | 18.43815 | -66.01359 | -45 ft | 5 kts | 320° |
| 2026-04-26 03:12 | 18.43861 | -66.01375 | -45 ft | 8 kts | 348° |
| 2026-04-26 03:12 | 18.43918 | -66.01367 | -46 ft | 10 kts | 36° |
| 2026-04-26 03:12 | 18.43937 | -66.01341 | -54 ft | 0 kts | 69° |
| 2026-04-26 03:12 | 18.43937 | -66.01340 | -54 ft | 1 kts | 69° |
| 2026-04-26 03:13 | 18.44132 | -66.00855 | -42 ft | 136 kts | 65° |
| 2026-04-26 03:13 | 18.44594 | -65.99738 | 637 ft | 194 kts | 66° |
| 2026-04-26 03:13 | 18.45311 | -65.98282 | 1419 ft | 248 kts | 59° |
| 2026-04-26 03:13 | 18.46187 | -65.96708 | 3186 ft | 242 kts | 59° |
| 2026-04-26 03:14 | 18.47044 | -65.95206 | 5141 ft | 240 kts | 58° |
| 2026-04-26 03:14 | 18.47988 | -65.93667 | 6434 ft | 266 kts | 56° |
| 2026-04-26 03:14 | 18.49160 | -65.92044 | 7454 ft | 290 kts | 43° |
| 2026-04-26 03:14 | 18.50968 | -65.91066 | 8571 ft | 306 kts | 11° |
| 2026-04-26 03:15 | 18.53120 | -65.91083 | 9844 ft | 314 kts | 348° |
| 2026-04-26 03:15 | 18.55272 | -65.91611 | 11089 ft | 320 kts | 344° |
| 2026-04-26 03:15 | 18.57370 | -65.92387 | 12349 ft | 321 kts | 327° |
| 2026-04-26 03:15 | 18.58889 | -65.94102 | 13491 ft | 326 kts | 296° |
| 2026-04-26 03:16 | 18.59426 | -65.96418 | 14556 ft | 329 kts | 268° |
| 2026-04-26 03:16 | 18.59089 | -65.98812 | 15626 ft | 332 kts | 257° |
| 2026-04-26 03:16 | 18.58582 | -66.01205 | 16747 ft | 336 kts | 257° |
| 2026-04-26 03:16 | 18.58179 | -66.03604 | 17889 ft | 339 kts | 262° |
| 2026-04-26 03:17 | 18.58036 | -66.06134 | 18983 ft | 341 kts | 266° |
| 2026-04-26 03:17 | 18.57937 | -66.08602 | 20023 ft | 342 kts | 264° |
| 2026-04-26 03:17 | 18.57730 | -66.11092 | 21112 ft | 343 kts | 263° |
| 2026-04-26 03:17 | 18.57512 | -66.13594 | 22235 ft | 343 kts | 263° |
| 2026-04-26 03:18 | 18.57320 | -66.16110 | 23414 ft | 343 kts | 264° |
| 2026-04-26 03:18 | 18.57140 | -66.18599 | 24431 ft | 341 kts | 264° |
| 2026-04-26 03:18 | 18.56950 | -66.21074 | 25450 ft | 337 kts | 264° |
| 2026-04-26 03:18 | 18.56761 | -66.23530 | 26517 ft | 333 kts | 264° |
| 2026-04-26 03:19 | 18.56572 | -66.25939 | 27627 ft | 327 kts | 264° |
| 2026-04-26 03:19 | 18.56393 | -66.28312 | 28768 ft | 321 kts | 264° |
| 2026-04-26 03:19 | 18.56212 | -66.30627 | 29964 ft | 313 kts | 264° |
| 2026-04-26 03:19 | 18.56039 | -66.32879 | 31004 ft | 304 kts | 263° |
| 2026-04-26 03:20 | 18.55867 | -66.35087 | 31843 ft | 303 kts | 263° |
| 2026-04-26 03:20 | 18.55693 | -66.37311 | 32507 ft | 306 kts | 263° |
| 2026-04-26 03:20 | 18.55521 | -66.39550 | 33178 ft | 308 kts | 263° |
| 2026-04-26 03:20 | 18.55334 | -66.41894 | 33102 ft | 332 kts | 263° |
| 2026-04-26 03:21 | 18.55140 | -66.44390 | 33109 ft | 351 kts | 263° |
| 2026-04-26 03:21 | 18.54936 | -66.47004 | 33111 ft | 366 kts | 263° |
| 2026-04-26 03:21 | 18.54725 | -66.49737 | 33039 ft | 379 kts | 263° |
| 2026-04-26 03:21 | 18.54519 | -66.52410 | 32610 ft | 365 kts | 263° |
| 2026-04-26 03:22 | 18.54305 | -66.55104 | 32074 ft | 364 kts | 263° |
| 2026-04-26 03:22 | 18.54097 | -66.57740 | 31561 ft | 369 kts | 263° |
| 2026-04-26 03:22 | 18.53881 | -66.60458 | 31055 ft | 376 kts | 264° |
| 2026-04-26 03:22 | 18.53665 | -66.63228 | 30557 ft | 381 kts | 264° |
| 2026-04-26 03:23 | 18.53445 | -66.65997 | 30067 ft | 384 kts | 264° |
| 2026-04-26 03:23 | 18.53222 | -66.68833 | 29486 ft | 387 kts | 264° |
| 2026-04-26 03:23 | 18.52995 | -66.71666 | 28919 ft | 388 kts | 264° |
| 2026-04-26 03:23 | 18.52770 | -66.74506 | 28360 ft | 388 kts | 264° |
| 2026-04-26 03:24 | 18.52544 | -66.77333 | 28013 ft | 387 kts | 264° |
| 2026-04-26 03:24 | 18.52316 | -66.80203 | 28011 ft | 401 kts | 264° |
| 2026-04-26 03:24 | 18.51844 | -66.86116 | 28010 ft | 401 kts | 264° |
| 2026-04-26 03:25 | 18.51369 | -66.92003 | 28012 ft | 405 kts | 264° |
| 2026-04-26 03:25 | 18.50891 | -66.97933 | 28006 ft | 406 kts | 264° |
| 2026-04-26 03:26 | 18.50409 | -67.03864 | 28003 ft | 407 kts | 264° |
| 2026-04-26 03:26 | 18.49935 | -67.09706 | 27996 ft | 390 kts | 264° |
| 2026-04-26 03:27 | 18.49805 | -67.12490 | 27990 ft | 381 kts | 269° |
| 2026-04-26 03:27 | 18.49784 | -67.15258 | 27984 ft | 375 kts | 267° |
| 2026-04-26 03:27 | 18.49705 | -67.17992 | 27983 ft | 372 kts | 266° |
| 2026-04-26 03:27 | 18.49640 | -67.20707 | 27984 ft | 370 kts | 268° |
| 2026-04-26 03:28 | 18.49594 | -67.23416 | 27983 ft | 369 kts | 268° |
| 2026-04-26 03:28 | 18.49547 | -67.26110 | 27981 ft | 368 kts | 268° |
| 2026-04-26 03:28 | 18.49510 | -67.27925 | 27984 ft | 367 kts | 267° |
| 2026-04-26 03:28 | 18.49450 | -67.30607 | 27979 ft | 366 kts | 267° |
| 2026-04-26 03:29 | 18.49399 | -67.33269 | 27984 ft | 372 kts | 267° |
| 2026-04-26 03:29 | 18.49340 | -67.36038 | 27984 ft | 383 kts | 268° |
| 2026-04-26 03:29 | 18.49285 | -67.38879 | 27991 ft | 392 kts | 267° |
| 2026-04-26 03:29 | 18.49222 | -67.41775 | 27997 ft | 398 kts | 268° |
| 2026-04-26 03:30 | 18.49164 | -67.44717 | 27996 ft | 403 kts | 267° |
| 2026-04-26 03:30 | 18.49099 | -67.47680 | 27995 ft | 407 kts | 268° |
| 2026-04-26 03:30 | 18.49038 | -67.50675 | 27996 ft | 410 kts | 268° |
| 2026-04-26 03:30 | 18.48972 | -67.53677 | 27996 ft | 412 kts | 268° |
| 2026-04-26 03:31 | 18.48910 | -67.56697 | 27996 ft | 406 kts | 268° |
| 2026-04-26 03:31 | 18.48845 | -67.59622 | 27993 ft | 393 kts | 268° |
| 2026-04-26 03:31 | 18.48786 | -67.62461 | 27987 ft | 382 kts | 267° |
| 2026-04-26 03:31 | 18.48721 | -67.65227 | 27979 ft | 374 kts | 267° |
| 2026-04-26 03:32 | 18.48664 | -67.67954 | 27973 ft | 371 kts | 267° |
| 2026-04-26 03:32 | 18.48600 | -67.70661 | 27971 ft | 368 kts | 268° |
| 2026-04-26 03:32 | 18.48544 | -67.73353 | 27976 ft | 367 kts | 267° |
| 2026-04-26 03:32 | 18.48481 | -67.75995 | 27973 ft | 366 kts | 267° |
| 2026-04-26 03:33 | 18.48423 | -67.78715 | 27974 ft | 365 kts | 267° |
| 2026-04-26 03:33 | 18.48358 | -67.81386 | 27972 ft | 364 kts | 267° |
| 2026-04-26 03:33 | 18.48302 | -67.84000 | 27977 ft | 363 kts | 267° |
| 2026-04-26 03:33 | 18.48236 | -67.86683 | 27976 ft | 363 kts | 267° |
| 2026-04-26 03:34 | 18.48179 | -67.89338 | 27976 ft | 363 kts | 267° |
| 2026-04-26 03:34 | 18.48113 | -67.91991 | 27975 ft | 362 kts | 267° |
| 2026-04-26 03:34 | 18.48054 | -67.94644 | 27976 ft | 362 kts | 267° |
| 2026-04-26 03:34 | 18.47988 | -67.97275 | 27973 ft | 362 kts | 267° |
| 2026-04-26 03:35 | 18.47929 | -67.99950 | 27974 ft | 362 kts | 267° |
| 2026-04-26 03:35 | 18.47863 | -68.02589 | 27974 ft | 361 kts | 267° |
| 2026-04-26 03:35 | 18.47808 | -68.05249 | 27969 ft | 361 kts | 267° |
| 2026-04-26 03:35 | 18.47744 | -68.07890 | 27974 ft | 361 kts | 267° |
| 2026-04-26 03:36 | 18.47686 | -68.10535 | 27972 ft | 361 kts | 267° |
| 2026-04-26 03:36 | 18.47620 | -68.13184 | 27975 ft | 361 kts | 267° |
| 2026-04-26 03:36 | 18.47562 | -68.15830 | 27977 ft | 361 kts | 267° |
| 2026-04-26 03:36 | 18.47496 | -68.18483 | 27980 ft | 361 kts | 267° |
| 2026-04-26 03:37 | 18.47437 | -68.21118 | 27980 ft | 361 kts | 267° |
| 2026-04-26 03:37 | 18.47370 | -68.23782 | 27980 ft | 361 kts | 267° |
| 2026-04-26 03:37 | 18.47311 | -68.26393 | 27984 ft | 361 kts | 267° |
| 2026-04-26 03:37 | 18.47244 | -68.29040 | 27985 ft | 361 kts | 267° |
| 2026-04-26 03:38 | 18.47183 | -68.31679 | 27985 ft | 361 kts | 267° |
| 2026-04-26 03:38 | 18.47115 | -68.34318 | 27989 ft | 361 kts | 267° |
| 2026-04-26 03:38 | 18.47054 | -68.36960 | 27987 ft | 361 kts | 267° |
| 2026-04-26 03:38 | 18.46985 | -68.39613 | 27989 ft | 361 kts | 267° |
| 2026-04-26 03:39 | 18.46923 | -68.42248 | 27989 ft | 361 kts | 267° |
| 2026-04-26 03:39 | 18.46854 | -68.44892 | 27985 ft | 361 kts | 267° |
| 2026-04-26 03:39 | 18.46789 | -68.47541 | 27984 ft | 361 kts | 267° |
| 2026-04-26 03:39 | 18.46721 | -68.50183 | 27985 ft | 361 kts | 267° |
| 2026-04-26 03:40 | 18.46657 | -68.52818 | 27985 ft | 361 kts | 267° |
| 2026-04-26 03:40 | 18.46587 | -68.55461 | 27984 ft | 361 kts | 267° |
| 2026-04-26 03:40 | 18.46521 | -68.58101 | 27983 ft | 361 kts | 267° |
| 2026-04-26 03:40 | 18.46451 | -68.60745 | 27982 ft | 361 kts | 267° |
| 2026-04-26 03:41 | 18.46385 | -68.63388 | 27985 ft | 361 kts | 267° |
| 2026-04-26 03:41 | 18.46313 | -68.66052 | 27562 ft | 367 kts | 267° |
| 2026-04-26 03:41 | 18.46245 | -68.68707 | 26950 ft | 359 kts | 267° |
| 2026-04-26 03:41 | 18.46175 | -68.71328 | 26355 ft | 353 kts | 267° |
| 2026-04-26 03:42 | 18.46110 | -68.73897 | 25769 ft | 348 kts | 267° |
| 2026-04-26 03:42 | 18.46039 | -68.76431 | 25194 ft | 344 kts | 267° |
| 2026-04-26 03:42 | 18.45975 | -68.78936 | 24633 ft | 342 kts | 267° |
| 2026-04-26 03:42 | 18.45905 | -68.81430 | 24078 ft | 339 kts | 267° |
| 2026-04-26 03:43 | 18.45840 | -68.83884 | 23532 ft | 338 kts | 268° |
| 2026-04-26 03:43 | 18.45773 | -68.86354 | 22880 ft | 336 kts | 267° |
| 2026-04-26 03:43 | 18.45705 | -68.88806 | 22240 ft | 335 kts | 267° |
| 2026-04-26 03:43 | 18.45641 | -68.91244 | 21620 ft | 333 kts | 267° |
| 2026-04-26 03:44 | 18.45571 | -68.93678 | 21008 ft | 332 kts | 267° |
| 2026-04-26 03:44 | 18.45507 | -68.96095 | 20413 ft | 330 kts | 267° |
| 2026-04-26 03:44 | 18.45437 | -68.98518 | 19823 ft | 329 kts | 267° |
| 2026-04-26 03:44 | 18.45371 | -69.00923 | 19248 ft | 327 kts | 266° |
| 2026-04-26 03:45 | 18.45305 | -69.03317 | 18686 ft | 326 kts | 266° |
| 2026-04-26 03:45 | 18.45238 | -69.05683 | 18107 ft | 325 kts | 266° |
| 2026-04-26 03:45 | 18.45168 | -69.08079 | 17467 ft | 324 kts | 266° |
| 2026-04-26 03:45 | 18.45103 | -69.10449 | 16841 ft | 323 kts | 266° |
| 2026-04-26 03:46 | 18.45034 | -69.12783 | 16236 ft | 323 kts | 266° |
| 2026-04-26 03:46 | 18.44970 | -69.15147 | 15638 ft | 322 kts | 266° |
| 2026-04-26 03:46 | 18.44898 | -69.17508 | 15048 ft | 322 kts | 267° |
| 2026-04-26 03:47 | 18.44761 | -69.22213 | 13908 ft | 321 kts | 267° |
| 2026-04-26 03:47 | 18.44698 | -69.24558 | 13284 ft | 321 kts | 267° |
| 2026-04-26 03:47 | 18.44624 | -69.26913 | 12650 ft | 320 kts | 267° |
| 2026-04-26 03:47 | 18.44561 | -69.29245 | 12043 ft | 319 kts | 267° |
| 2026-04-26 03:48 | 18.44487 | -69.31583 | 11439 ft | 318 kts | 267° |
| 2026-04-26 03:48 | 18.44421 | -69.33909 | 10849 ft | 318 kts | 267° |
| 2026-04-26 03:48 | 18.44360 | -69.35942 | 10338 ft | 317 kts | 267° |
| 2026-04-26 03:48 | 18.44283 | -69.38364 | 10063 ft | 352 kts | 267° |
| 2026-04-26 03:49 | 18.44215 | -69.40856 | 9958 ft | 337 kts | 267° |
| 2026-04-26 03:49 | 18.44139 | -69.43260 | 9842 ft | 322 kts | 267° |
| 2026-04-26 03:49 | 18.44073 | -69.45573 | 9714 ft | 312 kts | 267° |
| 2026-04-26 03:49 | 18.44000 | -69.47822 | 9583 ft | 305 kts | 267° |
| 2026-04-26 03:50 | 18.43935 | -69.50037 | 9451 ft | 299 kts | 267° |
| 2026-04-26 03:50 | 18.43868 | -69.52209 | 9318 ft | 295 kts | 266° |
| 2026-04-26 03:50 | 18.43800 | -69.54363 | 9188 ft | 293 kts | 267° |
| 2026-04-26 03:50 | 18.43737 | -69.56501 | 9059 ft | 291 kts | 267° |
| 2026-04-26 03:51 | 18.43667 | -69.58631 | 8931 ft | 289 kts | 267° |
| 2026-04-26 03:51 | 18.43608 | -69.60738 | 8808 ft | 288 kts | 267° |
| 2026-04-26 03:51 | 18.43535 | -69.62851 | 8676 ft | 288 kts | 267° |
| 2026-04-26 03:51 | 18.43476 | -69.64950 | 8478 ft | 290 kts | 267° |
| 2026-04-26 03:52 | 18.43407 | -69.67092 | 8160 ft | 295 kts | 268° |
| 2026-04-26 03:52 | 18.43451 | -69.69275 | 7846 ft | 298 kts | 270° |
| 2026-04-26 03:52 | 18.43448 | -69.71471 | 7535 ft | 301 kts | 269° |
| 2026-04-26 03:52 | 18.43447 | -69.73689 | 7230 ft | 304 kts | 270° |
| 2026-04-26 03:53 | 18.43460 | -69.75921 | 6928 ft | 305 kts | 270° |
| 2026-04-26 03:53 | 18.43472 | -69.78154 | 6625 ft | 306 kts | 270° |
| 2026-04-26 03:53 | 18.43256 | -69.80391 | 6249 ft | 308 kts | 258° |
| 2026-04-26 03:53 | 18.42758 | -69.82587 | 5782 ft | 313 kts | 256° |
| 2026-04-26 03:54 | 18.42285 | -69.84645 | 5310 ft | 260 kts | 257° |
| 2026-04-26 03:54 | 18.42006 | -69.86367 | 5031 ft | 227 kts | 261° |
| 2026-04-26 03:54 | 18.41763 | -69.87911 | 4843 ft | 201 kts | 259° |
| 2026-04-26 03:54 | 18.41529 | -69.89294 | 4726 ft | 190 kts | 259° |
| 2026-04-26 03:55 | 18.41282 | -69.90712 | 4454 ft | 197 kts | 259° |
| 2026-04-26 03:55 | 18.41054 | -69.92067 | 4222 ft | 183 kts | 259° |
| 2026-04-26 03:55 | 18.40830 | -69.93345 | 4036 ft | 171 kts | 259° |
| 2026-04-26 03:55 | 18.40630 | -69.94548 | 3844 ft | 165 kts | 260° |
| 2026-04-26 03:56 | 18.40421 | -69.95728 | 3648 ft | 162 kts | 259° |
| 2026-04-26 03:56 | 18.40243 | -69.96889 | 3448 ft | 159 kts | 265° |
| 2026-04-26 03:56 | 18.40533 | -69.97948 | 3209 ft | 157 kts | 314° |
| 2026-04-26 03:56 | 18.41466 | -69.98540 | 2979 ft | 156 kts | 346° |
| 2026-04-26 03:57 | 18.42534 | -69.98694 | 2791 ft | 152 kts | 351° |
| 2026-04-26 03:57 | 18.43512 | -69.98896 | 2607 ft | 140 kts | 350° |
| 2026-04-26 03:57 | 18.44436 | -69.99049 | 2498 ft | 128 kts | 350° |
| 2026-04-26 03:57 | 18.45256 | -69.99213 | 2481 ft | 110 kts | 350° |
| 2026-04-26 03:58 | 18.46006 | -69.99338 | 2479 ft | 111 kts | 349° |
| 2026-04-26 03:58 | 18.46777 | -69.99494 | 2486 ft | 115 kts | 351° |
| 2026-04-26 03:58 | 18.47579 | -69.99625 | 2486 ft | 116 kts | 349° |
| 2026-04-26 03:58 | 18.48371 | -69.99755 | 2481 ft | 115 kts | 2° |
| 2026-04-26 03:59 | 18.49135 | -69.99574 | 2482 ft | 114 kts | 9° |
| 2026-04-26 03:59 | 18.49941 | -69.99530 | 2366 ft | 124 kts | 4° |
| 2026-04-26 03:59 | 18.50809 | -69.99406 | 2183 ft | 124 kts | 8° |
| 2026-04-26 03:59 | 18.51647 | -69.99307 | 1799 ft | 122 kts | 5° |
| 2026-04-26 04:00 | 18.52458 | -69.99206 | 1417 ft | 117 kts | 12° |
| 2026-04-26 04:00 | 18.53279 | -69.99048 | 973 ft | 121 kts | 7° |
| 2026-04-26 04:00 | 18.54117 | -69.98955 | 657 ft | 121 kts | 5° |
| 2026-04-26 04:00 | 18.54971 | -69.98846 | 403 ft | 123 kts | 6° |
| 2026-04-26 04:01 | 18.55787 | -69.98747 | 257 ft | 113 kts | 6° |
| 2026-04-26 04:01 | 18.56517 | -69.98656 | 103 ft | 100 kts | 6° |
| 2026-04-26 04:01 | 18.57135 | -69.98584 | 93 ft | 80 kts | 8° |
| 2026-04-26 04:01 | 18.57564 | -69.98530 | 96 ft | 46 kts | 5° |
| 2026-04-26 04:02 | 18.57816 | -69.98503 | 97 ft | 32 kts | 7° |
| 2026-04-26 04:02 | 18.57877 | -69.98495 | 96 ft | 10 kts | 7° |
| 2026-04-26 04:02 | 18.57962 | -69.98437 | 96 ft | 18 kts | 80° |
| 2026-04-26 04:02 | 18.57940 | -69.98333 | 98 ft | 14 kts | 136° |
| 2026-04-26 04:03 | 18.57843 | -69.98329 | 98 ft | 16 kts | 187° |
| 2026-04-26 04:03 | 18.57739 | -69.98342 | 98 ft | 18 kts | 187° |
| 2026-04-26 04:03 | 18.57662 | -69.98294 | 98 ft | 14 kts | 107° |
| 2026-04-26 04:03 | 18.57659 | -69.98279 | 98 ft | 0 kts | 85° |